createdAt,value
2018-02-08T00:00:29.180Z,74.95
2018-02-08T00:01:35.084Z,74.94
2018-02-08T00:02:41.559Z,74.95
2018-02-08T00:03:47.276Z,74.96
2018-02-08T00:04:53.759Z,74.97
2018-02-08T00:05:59.499Z,75.01
2018-02-08T00:07:05.220Z,75.04
2018-02-08T00:08:11.711Z,75.05
2018-02-08T00:09:17.413Z,75.08
2018-02-08T00:10:23.905Z,75.09
2018-02-08T00:11:29.863Z,75.10
2018-02-08T00:12:35.588Z,75.11
2018-02-08T00:13:41.312Z,75.14
2018-02-08T00:14:47.851Z,75.19
2018-02-08T00:15:53.740Z,75.21
2018-02-08T00:16:59.468Z,75.24
2018-02-08T00:18:05.186Z,75.24
2018-02-08T00:19:11.687Z,75.24
2018-02-08T00:20:17.393Z,75.26
2018-02-08T00:21:23.872Z,75.28
2018-02-08T00:22:45.249Z,75.27
2018-02-08T00:23:51.753Z,75.27
2018-02-08T00:24:57.473Z,75.26
2018-02-08T00:26:03.191Z,75.27
2018-02-08T00:27:09.693Z,75.24
2018-02-08T00:28:15.432Z,75.21
2018-02-08T00:29:21.160Z,75.17
2018-02-08T00:30:26.875Z,75.12
2018-02-08T00:31:33.387Z,75.08
2018-02-08T00:32:39.932Z,75.03
2018-02-08T00:33:45.679Z,74.99
2018-02-08T00:34:51.399Z,74.96
2018-02-08T00:35:57.122Z,74.96
2018-02-08T00:37:04.011Z,74.93
2018-02-08T00:38:09.726Z,74.91
2018-02-08T00:39:16.246Z,74.90
2018-02-08T00:40:21.963Z,74.90
2018-02-08T00:41:27.688Z,74.89
2018-02-08T00:42:33.417Z,74.87
2018-02-08T00:43:39.152Z,74.86
2018-02-08T00:44:45.672Z,74.83
2018-02-08T00:45:51.387Z,74.81
2018-02-08T00:46:57.106Z,74.80
2018-02-08T00:48:03.584Z,74.79
2018-02-08T00:49:09.317Z,74.77
2018-02-08T00:50:15.041Z,74.75
2018-02-08T00:51:20.768Z,74.74
2018-02-08T00:52:27.264Z,74.71
2018-02-08T00:53:32.998Z,74.67
2018-02-08T00:54:38.711Z,74.66
2018-02-08T00:55:45.224Z,74.61
2018-02-08T00:56:50.946Z,74.57
2018-02-08T00:57:56.672Z,74.54
2018-02-08T00:59:03.152Z,74.47
2018-02-08T01:00:08.873Z,74.46
2018-02-08T01:01:14.627Z,74.42
2018-02-08T01:02:20.336Z,74.44
2018-02-08T01:03:26.825Z,74.44
2018-02-08T01:04:32.550Z,74.43
2018-02-08T01:05:38.267Z,74.43
2018-02-08T01:06:44.780Z,74.45
2018-02-08T01:07:50.509Z,74.47
2018-02-08T01:08:56.243Z,74.48
2018-02-08T01:10:01.960Z,74.53
2018-02-08T01:11:07.696Z,74.52
2018-02-08T01:12:14.208Z,74.51
2018-02-08T01:13:19.932Z,74.51
2018-02-08T01:14:25.651Z,74.51
2018-02-08T01:15:31.369Z,74.51
2018-02-08T01:16:37.856Z,74.49
2018-02-08T01:17:43.599Z,74.46
2018-02-08T01:18:49.320Z,74.45
2018-02-08T01:19:55.049Z,74.45
2018-02-08T01:21:01.540Z,74.43
2018-02-08T01:22:07.264Z,74.43
2018-02-08T01:23:13.022Z,74.41
2018-02-08T01:24:18.753Z,74.38
2018-02-08T01:25:24.476Z,74.38
2018-02-08T01:26:30.964Z,74.41
2018-02-08T01:27:36.689Z,74.44
2018-02-08T01:28:42.450Z,74.45
2018-02-08T01:29:48.177Z,74.48
2018-02-08T01:30:53.883Z,74.52
2018-02-08T01:31:59.608Z,74.56
2018-02-08T01:33:05.317Z,74.58
2018-02-08T01:34:11.061Z,74.61
2018-02-08T01:35:16.787Z,74.65
2018-02-08T01:36:22.503Z,74.67
2018-02-08T01:37:28.996Z,74.68
2018-02-08T01:38:34.723Z,74.71
2018-02-08T01:39:40.508Z,74.69
2018-02-08T01:40:46.231Z,74.70
2018-02-08T01:41:51.950Z,74.70
2018-02-08T01:42:57.672Z,74.70
2018-02-08T01:44:04.181Z,74.72
2018-02-08T01:45:09.916Z,74.71
2018-02-08T01:46:15.640Z,74.71
2018-02-08T01:47:21.369Z,74.74
2018-02-08T01:48:27.102Z,74.74
2018-02-08T01:49:46.857Z,74.77
2018-02-08T01:50:53.360Z,74.74
2018-02-08T01:51:59.139Z,74.72
2018-02-08T01:53:04.863Z,74.71
2018-02-08T01:54:10.592Z,74.74
2018-02-08T01:55:16.309Z,74.75
2018-02-08T01:56:22.059Z,74.77
2018-02-08T01:57:27.787Z,74.83
2018-02-08T01:58:33.508Z,74.85
2018-02-08T01:59:40.288Z,74.86
2018-02-08T02:00:46.448Z,74.85
2018-02-08T02:01:52.199Z,74.82
2018-02-08T02:02:57.945Z,74.84
2018-02-08T02:04:03.419Z,74.84
2018-02-08T02:05:09.141Z,74.87
2018-02-08T02:06:14.868Z,74.83
2018-02-08T02:07:20.616Z,74.81
2018-02-08T02:08:26.347Z,74.82
2018-02-08T02:09:32.068Z,74.85
2018-02-08T02:10:37.775Z,74.90
2018-02-08T02:11:44.281Z,74.95
2018-02-08T02:12:50.095Z,74.99
2018-02-08T02:13:56.575Z,75.01
2018-02-08T02:15:02.296Z,75.03
2018-02-08T02:16:08.019Z,75.01
2018-02-08T02:17:14.512Z,75.01
2018-02-08T02:18:20.304Z,75.01
2018-02-08T02:19:25.523Z,75.00
2018-02-08T02:20:31.259Z,75.00
2018-02-08T02:21:36.972Z,75.03
2018-02-08T02:22:42.709Z,75.05
2018-02-08T02:23:48.453Z,75.07
2018-02-08T02:24:54.179Z,75.10
2018-02-08T02:25:59.912Z,75.15
2018-02-08T02:27:05.637Z,75.16
2018-02-08T02:28:12.117Z,75.17
2018-02-08T02:29:17.862Z,75.17
2018-02-08T02:30:23.585Z,75.20
2018-02-08T02:31:29.309Z,75.21
2018-02-08T02:32:35.809Z,75.21
2018-02-08T02:33:41.528Z,75.20
2018-02-08T02:34:48.035Z,75.22
2018-02-08T02:35:53.559Z,75.22
2018-02-08T02:36:59.265Z,75.21
2018-02-08T02:38:04.660Z,75.20
2018-02-08T02:39:10.393Z,75.21
2018-02-08T02:40:16.139Z,75.21
2018-02-08T02:41:21.875Z,75.16
2018-02-08T02:42:27.587Z,75.08
2018-02-08T02:43:33.369Z,75.05
2018-02-08T02:44:39.851Z,75.08
2018-02-08T02:45:46.380Z,75.11
2018-02-08T02:46:52.125Z,75.17
2018-02-08T02:47:59.344Z,75.20
2018-02-08T02:49:05.078Z,75.22
2018-02-08T02:50:11.569Z,75.24
2018-02-08T02:51:17.312Z,75.26
2018-02-08T02:52:23.039Z,75.28
2018-02-08T02:53:28.765Z,75.38
2018-02-08T02:54:34.298Z,75.37
2018-02-08T02:55:40.028Z,75.38
2018-02-08T02:56:46.541Z,75.36
2018-02-08T02:57:52.260Z,75.33
2018-02-08T02:58:57.985Z,75.32
2018-02-08T03:00:03.281Z,75.29
2018-02-08T03:01:09.031Z,75.26
2018-02-08T03:02:14.768Z,75.25
2018-02-08T03:03:21.256Z,75.23
2018-02-08T03:04:26.983Z,75.25
2018-02-08T03:05:33.481Z,75.25
2018-02-08T03:06:39.180Z,75.27
2018-02-08T03:07:45.691Z,75.27
2018-02-08T03:08:51.433Z,75.25
2018-02-08T03:09:57.147Z,75.25
2018-02-08T03:11:02.879Z,75.26
2018-02-08T03:12:08.597Z,75.28
2018-02-08T03:13:15.118Z,75.29
2018-02-08T03:14:20.827Z,75.32
2018-02-08T03:15:26.553Z,75.34
2018-02-08T03:16:33.052Z,75.35
2018-02-08T03:17:38.776Z,75.38
2018-02-08T03:18:44.522Z,75.38
2018-02-08T03:19:50.252Z,75.36
2018-02-08T03:20:55.987Z,75.34
2018-02-08T03:22:01.688Z,75.31
2018-02-08T03:23:07.076Z,75.29
2018-02-08T03:24:13.587Z,75.29
2018-02-08T03:25:20.085Z,75.29
2018-02-08T03:26:25.812Z,75.30
2018-02-08T03:27:31.534Z,75.32
2018-02-08T03:28:38.043Z,75.32
2018-02-08T03:29:43.617Z,75.29
2018-02-08T03:30:54.613Z,75.25
2018-02-08T03:32:00.460Z,75.24
2018-02-08T03:33:06.179Z,75.23
2018-02-08T03:34:12.671Z,75.21
2018-02-08T03:35:18.428Z,75.19
2018-02-08T03:36:24.151Z,75.17
2018-02-08T03:37:29.880Z,75.17
2018-02-08T03:38:35.625Z,75.16
2018-02-08T03:39:41.335Z,75.16
2018-02-08T03:40:47.075Z,75.17
2018-02-08T03:41:53.566Z,75.14
2018-02-08T03:43:00.058Z,75.15
2018-02-08T03:44:05.767Z,75.14
2018-02-08T03:45:11.495Z,75.21
2018-02-08T03:46:18.008Z,75.28
2018-02-08T03:47:23.728Z,75.30
2018-02-08T03:48:29.443Z,75.34
2018-02-08T03:49:35.165Z,75.40
2018-02-08T03:50:41.651Z,75.52
2018-02-08T03:51:47.391Z,75.50
2018-02-08T03:52:53.112Z,75.49
2018-02-08T03:53:58.835Z,75.49
2018-02-08T03:55:05.003Z,75.56
2018-02-08T03:56:11.527Z,75.49
2018-02-08T03:57:17.445Z,75.46
2018-02-08T03:58:22.836Z,75.39
2018-02-08T03:59:29.328Z,75.34
2018-02-08T04:00:35.055Z,75.25
2018-02-08T04:01:40.772Z,75.23
2018-02-08T04:02:47.279Z,75.10
2018-02-08T04:03:53.017Z,75.03
2018-02-08T04:04:58.788Z,74.98
2018-02-08T04:06:04.517Z,74.87
2018-02-08T04:07:10.236Z,74.68
2018-02-08T04:08:15.983Z,74.60
2018-02-08T04:09:21.716Z,74.53
2018-02-08T04:10:27.436Z,74.29
2018-02-08T04:11:33.160Z,74.19
2018-02-08T04:12:39.645Z,74.08
2018-02-08T04:13:45.448Z,73.99
2018-02-08T04:14:51.954Z,73.90
2018-02-08T04:15:57.830Z,73.68
2018-02-08T04:17:03.555Z,73.59
2018-02-08T04:18:09.311Z,73.56
2018-02-08T04:19:15.060Z,73.38
2018-02-08T04:20:20.793Z,73.10
2018-02-08T04:21:26.514Z,72.87
2018-02-08T04:22:32.242Z,72.54
2018-02-08T04:23:37.978Z,72.60
2018-02-08T04:24:43.715Z,72.33
2018-02-08T04:25:49.460Z,72.27
2018-02-08T04:26:55.179Z,72.03
2018-02-08T04:28:01.670Z,71.98
2018-02-08T04:29:07.389Z,71.81
2018-02-08T04:30:13.142Z,71.79
2018-02-08T04:31:18.864Z,71.64
2018-02-08T04:32:25.339Z,71.45
2018-02-08T04:33:31.088Z,71.14
2018-02-08T04:34:36.797Z,70.75
2018-02-08T04:35:43.311Z,70.40
2018-02-08T04:36:49.040Z,70.17
2018-02-08T04:37:54.782Z,69.91
2018-02-08T04:39:17.430Z,69.70
2018-02-08T04:40:39.975Z,69.59
2018-02-08T04:42:03.397Z,69.31
2018-02-08T04:43:26.083Z,69.23
2018-02-08T04:44:48.452Z,69.14
2018-02-08T04:46:10.896Z,69.12
2018-02-08T04:47:28.456Z,69.17
2018-02-08T04:48:34.192Z,69.26
2018-02-08T04:49:39.900Z,69.32
2018-02-08T04:50:45.633Z,69.31
2018-02-08T04:51:51.364Z,69.33
2018-02-08T04:52:57.104Z,69.31
2018-02-08T04:54:02.857Z,69.22
2018-02-08T04:55:08.780Z,69.10
2018-02-08T04:56:15.272Z,68.88
2018-02-08T04:57:20.987Z,68.74
2018-02-08T04:58:27.493Z,68.61
2018-02-08T04:59:33.208Z,68.55
2018-02-08T05:00:38.936Z,68.54
2018-02-08T05:01:44.459Z,68.38
2018-02-08T05:02:51.468Z,68.42
2018-02-08T05:03:57.206Z,68.39
2018-02-08T05:05:02.923Z,68.32
2018-02-08T05:06:08.637Z,68.39
2018-02-08T05:07:14.351Z,68.44
2018-02-08T05:08:20.064Z,68.37
2018-02-08T05:09:25.821Z,68.26
2018-02-08T05:10:31.543Z,68.17
2018-02-08T05:11:37.267Z,67.94
2018-02-08T05:12:42.979Z,67.92
2018-02-08T05:13:48.760Z,67.75
2018-02-08T05:14:54.656Z,67.74
2018-02-08T05:16:01.142Z,67.81
2018-02-08T05:17:07.622Z,67.84
2018-02-08T05:18:13.337Z,67.79
2018-02-08T05:19:19.827Z,67.73
2018-02-08T05:20:25.571Z,67.70
2018-02-08T05:21:31.287Z,67.80
2018-02-08T05:22:37.018Z,67.85
2018-02-08T05:23:43.503Z,67.83
2018-02-08T05:24:49.204Z,67.86
2018-02-08T05:25:54.946Z,67.86
2018-02-08T05:27:00.666Z,67.87
2018-02-08T05:28:06.384Z,67.86
2018-02-08T05:29:12.107Z,67.86
2018-02-08T05:30:17.825Z,67.90
2018-02-08T05:31:24.147Z,68.02
2018-02-08T05:32:29.877Z,68.08
2018-02-08T05:33:35.606Z,68.12
2018-02-08T05:34:41.333Z,68.10
2018-02-08T05:35:47.045Z,68.02
2018-02-08T05:36:52.795Z,67.94
2018-02-08T05:37:58.523Z,67.88
2018-02-08T05:39:03.924Z,67.87
2018-02-08T05:40:09.637Z,67.93
2018-02-08T05:41:15.350Z,68.01
2018-02-08T05:42:21.087Z,68.01
2018-02-08T05:43:26.813Z,68.10
2018-02-08T05:44:32.521Z,68.13
2018-02-08T05:45:39.004Z,68.25
2018-02-08T05:46:45.246Z,68.36
2018-02-08T05:47:50.983Z,68.39
2018-02-08T05:48:56.699Z,68.40
2018-02-08T05:50:02.412Z,68.48
2018-02-08T05:51:08.147Z,68.60
2018-02-08T05:52:13.877Z,68.66
2018-02-08T05:53:20.371Z,68.72
2018-02-08T05:54:25.902Z,68.80
2018-02-08T05:55:31.616Z,68.84
2018-02-08T05:56:37.343Z,68.90
2018-02-08T05:57:43.831Z,68.94
2018-02-08T05:58:49.592Z,68.95
2018-02-08T05:59:55.308Z,69.00
2018-02-08T06:01:01.016Z,69.06
2018-02-08T06:02:10.435Z,69.15
2018-02-08T06:03:16.907Z,69.23
2018-02-08T06:04:23.424Z,69.31
2018-02-08T06:05:29.152Z,69.40
2018-02-08T06:06:34.595Z,69.43
2018-02-08T06:07:40.320Z,69.49
2018-02-08T06:08:46.809Z,69.51
2018-02-08T06:09:52.557Z,69.51
2018-02-08T06:10:59.048Z,69.62
2018-02-08T06:12:04.827Z,69.68
2018-02-08T06:13:10.551Z,69.74
2018-02-08T06:14:16.272Z,69.80
2018-02-08T06:15:22.039Z,69.84
2018-02-08T06:16:27.756Z,69.89
2018-02-08T06:17:34.231Z,69.92
2018-02-08T06:18:39.959Z,69.93
2018-02-08T06:19:45.691Z,69.96
2018-02-08T06:20:52.225Z,70.00
2018-02-08T06:21:57.935Z,70.04
2018-02-08T06:23:03.676Z,70.04
2018-02-08T06:24:09.411Z,70.03
2018-02-08T06:25:15.129Z,70.04
2018-02-08T06:26:20.899Z,70.10
2018-02-08T06:27:26.603Z,70.15
2018-02-08T06:28:33.135Z,70.18
2018-02-08T06:29:39.036Z,70.21
2018-02-08T06:30:44.776Z,70.26
2018-02-08T06:31:50.523Z,70.29
2018-02-08T06:32:56.242Z,70.33
2018-02-08T06:34:01.960Z,70.36
2018-02-08T06:35:08.453Z,70.39
2018-02-08T06:36:14.169Z,70.42
2018-02-08T06:37:19.913Z,70.45
2018-02-08T06:38:25.875Z,70.46
2018-02-08T06:39:31.600Z,70.51
2018-02-08T06:40:37.331Z,70.57
2018-02-08T06:41:43.828Z,70.62
2018-02-08T06:42:49.984Z,70.69
2018-02-08T06:43:55.703Z,70.74
2018-02-08T06:45:01.430Z,70.78
2018-02-08T06:46:07.915Z,70.78
2018-02-08T06:47:14.152Z,70.81
2018-02-08T06:48:20.649Z,70.84
2018-02-08T06:49:26.359Z,70.89
2018-02-08T06:50:32.087Z,71.04
2018-02-08T06:51:37.791Z,71.08
2018-02-08T06:52:43.538Z,71.16
2018-02-08T06:53:49.280Z,71.25
2018-02-08T06:54:55.782Z,71.37
2018-02-08T06:56:01.560Z,71.38
2018-02-08T06:57:07.273Z,71.39
2018-02-08T06:58:13.020Z,71.41
2018-02-08T06:59:18.955Z,71.42
2018-02-08T07:00:24.688Z,71.45
2018-02-08T07:01:30.419Z,71.46
2018-02-08T07:02:36.147Z,71.55
2018-02-08T07:03:42.623Z,71.59
2018-02-08T07:04:48.366Z,71.63
2018-02-08T07:05:54.079Z,71.75
2018-02-08T07:07:00.572Z,71.71
2018-02-08T07:08:06.301Z,71.66
2018-02-08T07:09:12.025Z,71.63
2018-02-08T07:10:18.350Z,71.60
2018-02-08T07:11:24.071Z,71.55
2018-02-08T07:12:29.803Z,71.55
2018-02-08T07:13:35.522Z,71.51
2018-02-08T07:14:41.265Z,71.53
2018-02-08T07:15:47.014Z,71.56
2018-02-08T07:16:52.501Z,71.53
2018-02-08T07:17:58.265Z,71.38
2018-02-08T07:19:04.136Z,71.18
2018-02-08T07:20:12.930Z,71.03
2018-02-08T07:21:19.435Z,70.85
2018-02-08T07:22:25.143Z,70.71
2018-02-08T07:23:30.876Z,70.60
2018-02-08T07:24:36.607Z,70.51
2018-02-08T07:25:42.348Z,70.40
2018-02-08T07:26:48.096Z,70.29
2018-02-08T07:27:53.825Z,70.20
2018-02-08T07:29:00.309Z,69.97
2018-02-08T07:30:05.378Z,69.83
2018-02-08T07:31:11.104Z,69.64
2018-02-08T07:32:16.835Z,69.50
2018-02-08T07:33:22.556Z,69.42
2018-02-08T07:34:28.462Z,69.35
2018-02-08T07:35:34.952Z,69.17
2018-02-08T07:36:40.672Z,69.05
2018-02-08T07:37:47.192Z,68.89
2018-02-08T07:38:52.907Z,68.65
2018-02-08T07:39:58.419Z,68.45
2018-02-08T07:41:04.177Z,68.17
2018-02-08T07:42:09.896Z,67.77
2018-02-08T07:43:15.647Z,67.34
2018-02-08T07:44:22.127Z,67.08
2018-02-08T07:45:27.861Z,66.97
2018-02-08T07:46:33.623Z,66.83
2018-02-08T07:47:39.455Z,66.46
2018-02-08T07:48:45.196Z,66.20
2018-02-08T07:49:50.916Z,66.21
2018-02-08T07:50:56.632Z,66.21
2018-02-08T07:52:03.447Z,66.16
2018-02-08T07:53:09.204Z,66.17
2018-02-08T07:54:14.987Z,66.22
2018-02-08T07:55:21.689Z,66.20
2018-02-08T07:56:27.594Z,66.11
2018-02-08T07:57:34.318Z,66.04
2018-02-08T07:58:40.234Z,65.99
2018-02-08T07:59:46.135Z,65.94
2018-02-08T08:00:52.666Z,65.86
2018-02-08T08:01:58.783Z,65.88
2018-02-08T08:03:04.738Z,65.84
2018-02-08T08:04:10.709Z,65.76
2018-02-08T08:05:17.251Z,65.64
2018-02-08T08:06:23.082Z,65.55
2018-02-08T08:07:28.976Z,65.47
2018-02-08T08:08:35.783Z,65.47
2018-02-08T08:09:41.542Z,65.47
2018-02-08T08:10:47.561Z,65.50
2018-02-08T08:11:53.828Z,65.65
2018-02-08T08:12:59.773Z,65.83
2018-02-08T08:14:05.665Z,65.93
2018-02-08T08:15:12.706Z,65.98
2018-02-08T08:16:18.993Z,66.13
2018-02-08T08:17:25.804Z,66.23
2018-02-08T08:18:31.871Z,66.13
2018-02-08T08:19:37.756Z,66.00
2018-02-08T08:20:46.725Z,65.82
2018-02-08T08:21:52.704Z,65.62
2018-02-08T08:22:58.952Z,65.50
2018-02-08T08:24:04.891Z,65.37
2018-02-08T08:25:10.890Z,65.33
2018-02-08T08:26:17.588Z,65.31
2018-02-08T08:27:23.555Z,65.28
2018-02-08T08:28:30.347Z,65.16
2018-02-08T08:29:37.183Z,64.96
2018-02-08T08:30:43.820Z,65.01
2018-02-08T08:31:49.534Z,64.96
2018-02-08T08:32:55.284Z,64.96
2018-02-08T08:34:01.264Z,64.89
2018-02-08T08:35:07.156Z,64.95
2018-02-08T08:36:14.019Z,64.90
2018-02-08T08:37:21.256Z,64.86
2018-02-08T08:38:26.927Z,64.85
2018-02-08T08:39:33.709Z,64.80
2018-02-08T08:40:40.504Z,64.70
2018-02-08T08:41:46.358Z,64.64
2018-02-08T08:42:53.420Z,64.34
2018-02-08T08:43:59.471Z,64.16
2018-02-08T08:45:05.239Z,64.11
2018-02-08T08:46:10.839Z,64.11
2018-02-08T08:47:16.741Z,64.15
2018-02-08T08:48:22.726Z,63.95
2018-02-08T08:49:28.788Z,63.53
2018-02-08T08:50:34.845Z,63.36
2018-02-08T08:51:41.705Z,63.31
2018-02-08T08:52:47.439Z,63.24
2018-02-08T08:53:53.395Z,63.17
2018-02-08T08:54:59.268Z,63.21
2018-02-08T08:56:04.937Z,63.19
2018-02-08T08:57:11.539Z,63.20
2018-02-08T08:58:17.353Z,63.15
2018-02-08T08:59:23.939Z,63.16
2018-02-08T09:00:30.081Z,63.16
2018-02-08T09:01:35.977Z,63.27
2018-02-08T09:02:42.300Z,63.33
2018-02-08T09:03:47.746Z,63.22
2018-02-08T09:04:53.772Z,63.14
2018-02-08T09:05:59.684Z,62.91
2018-02-08T09:07:06.380Z,62.77
2018-02-08T09:08:12.541Z,62.78
2018-02-08T09:09:18.399Z,62.75
2018-02-08T09:10:24.530Z,62.74
2018-02-08T09:11:30.538Z,62.82
2018-02-08T09:12:37.347Z,62.62
2018-02-08T09:13:43.253Z,62.62
2018-02-08T09:14:49.557Z,62.46
2018-02-08T09:15:55.577Z,61.95
2018-02-08T09:17:01.361Z,61.53
2018-02-08T09:18:07.086Z,61.39
2018-02-08T09:19:12.816Z,61.43
2018-02-08T09:20:18.524Z,61.54
2018-02-08T09:21:25.006Z,61.56
2018-02-08T09:22:30.738Z,61.38
2018-02-08T09:23:37.224Z,61.15
2018-02-08T09:24:42.929Z,61.10
2018-02-08T09:25:49.194Z,61.08
2018-02-08T09:26:55.660Z,61.16
2018-02-08T09:28:01.392Z,61.28
2018-02-08T09:29:07.270Z,61.40
2018-02-08T09:30:13.294Z,61.43
2018-02-08T09:31:19.321Z,61.11
2018-02-08T09:32:25.285Z,60.91
2018-02-08T09:33:31.411Z,60.88
2018-02-08T09:34:38.122Z,60.91
2018-02-08T09:35:44.115Z,60.88
2018-02-08T09:36:50.271Z,60.79
2018-02-08T09:37:57.423Z,60.78
2018-02-08T09:39:03.548Z,60.82
2018-02-08T09:40:08.936Z,60.85
2018-02-08T09:41:15.420Z,61.00
2018-02-08T09:42:21.222Z,61.03
2018-02-08T09:43:26.943Z,60.92
2018-02-08T09:44:32.817Z,60.89
2018-02-08T09:45:39.296Z,60.81
2018-02-08T09:46:45.124Z,60.92
2018-02-08T09:47:52.336Z,61.00
2018-02-08T09:48:58.243Z,60.91
2018-02-08T09:50:04.762Z,60.76
2018-02-08T09:51:10.970Z,60.75
2018-02-08T09:52:16.686Z,60.87
2018-02-08T09:53:22.388Z,60.85
2018-02-08T09:54:28.128Z,60.86
2018-02-08T09:55:33.872Z,60.71
2018-02-08T09:56:39.578Z,60.71
2018-02-08T09:57:45.300Z,60.92
2018-02-08T09:58:51.786Z,61.26
2018-02-08T09:59:57.488Z,61.35
2018-02-08T10:01:04.076Z,61.30
2018-02-08T10:02:09.781Z,61.21
2018-02-08T10:03:15.508Z,61.28
2018-02-08T10:04:21.226Z,61.40
2018-02-08T10:05:26.941Z,61.38
2018-02-08T10:06:32.679Z,61.25
2018-02-08T10:07:38.524Z,60.89
2018-02-08T10:08:44.225Z,60.63
2018-02-08T10:09:49.937Z,60.43
2018-02-08T10:10:55.459Z,60.29
2018-02-08T10:12:01.197Z,60.34
2018-02-08T10:13:06.788Z,60.63
2018-02-08T10:14:12.492Z,60.91
2018-02-08T10:15:18.018Z,61.16
2018-02-08T10:16:23.772Z,61.23
2018-02-08T10:17:29.521Z,61.00
2018-02-08T10:18:35.291Z,60.99
2018-02-08T10:19:41.784Z,61.05
2018-02-08T10:20:47.488Z,61.12
2018-02-08T10:21:53.959Z,61.12
2018-02-08T10:22:59.691Z,61.03
2018-02-08T10:24:06.171Z,60.97
2018-02-08T10:25:12.120Z,60.88
2018-02-08T10:26:17.852Z,60.79
2018-02-08T10:27:23.560Z,60.62
2018-02-08T10:28:29.296Z,60.45
2018-02-08T10:29:35.004Z,60.39
2018-02-08T10:30:40.703Z,60.37
2018-02-08T10:31:47.183Z,60.34
2018-02-08T10:32:52.906Z,60.28
2018-02-08T10:33:59.434Z,60.17
2018-02-08T10:35:05.367Z,60.06
2018-02-08T10:36:11.547Z,59.91
2018-02-08T10:37:18.147Z,59.62
2018-02-08T10:38:24.878Z,59.39
2018-02-08T10:39:30.854Z,59.27
2018-02-08T10:40:36.909Z,59.25
2018-02-08T10:41:42.894Z,59.13
2018-02-08T10:42:49.827Z,59.09
2018-02-08T10:43:55.784Z,59.14
2018-02-08T10:45:01.712Z,58.91
2018-02-08T10:46:07.654Z,58.59
2018-02-08T10:47:13.599Z,58.42
2018-02-08T10:48:19.540Z,58.39
2018-02-08T10:49:25.492Z,58.29
2018-02-08T10:50:31.625Z,58.10
2018-02-08T10:51:37.688Z,57.74
2018-02-08T10:52:43.721Z,57.49
2018-02-08T10:53:49.699Z,57.43
2018-02-08T10:54:55.610Z,57.40
2018-02-08T10:56:03.409Z,57.26
2018-02-08T10:57:09.570Z,57.23
2018-02-08T10:58:15.304Z,57.30
2018-02-08T10:59:21.677Z,57.29
2018-02-08T11:00:27.633Z,57.22
2018-02-08T11:01:33.766Z,57.33
2018-02-08T11:02:39.787Z,57.16
2018-02-08T11:03:46.245Z,56.82
2018-02-08T11:04:52.302Z,56.61
2018-02-08T11:05:58.281Z,56.41
2018-02-08T11:07:04.516Z,56.24
2018-02-08T11:08:10.343Z,56.01
2018-02-08T11:09:17.075Z,56.06
2018-02-08T11:10:25.640Z,56.12
2018-02-08T11:11:31.584Z,56.12
2018-02-08T11:12:37.342Z,56.12
2018-02-08T11:13:44.091Z,56.06
2018-02-08T11:14:50.140Z,55.98
2018-02-08T11:15:56.153Z,55.99
2018-02-08T11:17:02.832Z,56.10
2018-02-08T11:18:09.695Z,56.12
2018-02-08T11:19:15.728Z,56.13
2018-02-08T11:20:22.378Z,55.95
2018-02-08T11:21:28.405Z,55.66
2018-02-08T11:22:34.356Z,55.49
2018-02-08T11:23:40.362Z,55.30
2018-02-08T11:24:46.311Z,54.97
2018-02-08T11:25:52.333Z,54.89
2018-02-08T11:26:58.330Z,54.88
2018-02-08T11:28:04.272Z,54.77
2018-02-08T11:29:10.405Z,54.74
2018-02-08T11:30:16.263Z,54.88
2018-02-08T11:31:22.105Z,55.00
2018-02-08T11:32:28.241Z,54.97
2018-02-08T11:33:34.191Z,54.68
2018-02-08T11:34:40.123Z,54.39
2018-02-08T11:35:46.963Z,54.35
2018-02-08T11:36:53.771Z,54.28
2018-02-08T11:37:59.911Z,54.26
2018-02-08T11:39:05.153Z,54.06
2018-02-08T11:40:11.458Z,54.04
2018-02-08T11:41:17.275Z,53.98
2018-02-08T11:42:23.219Z,53.92
2018-02-08T11:43:29.162Z,53.63
2018-02-08T11:44:35.079Z,53.48
2018-02-08T11:45:41.029Z,53.51
2018-02-08T11:46:46.965Z,53.48
2018-02-08T11:47:52.925Z,53.57
2018-02-08T11:48:58.857Z,53.67
2018-02-08T11:50:04.452Z,53.55
2018-02-08T11:51:11.313Z,53.58
2018-02-08T11:52:17.031Z,53.62
2018-02-08T11:53:22.635Z,53.75
2018-02-08T11:54:30.018Z,53.82
2018-02-08T11:55:36.075Z,53.97
2018-02-08T11:56:42.034Z,54.06
2018-02-08T11:57:47.768Z,54.03
2018-02-08T11:58:53.528Z,54.06
2018-02-08T11:59:59.245Z,54.17
2018-02-08T12:01:04.979Z,54.18
2018-02-08T12:02:10.703Z,54.24
2018-02-08T12:03:17.183Z,54.44
2018-02-08T12:04:22.899Z,54.54
2018-02-08T12:05:29.390Z,54.52
2018-02-08T12:06:35.156Z,54.42
2018-02-08T12:07:40.894Z,54.38
2018-02-08T12:08:46.621Z,54.45
2018-02-08T12:09:52.343Z,54.61
2018-02-08T12:10:58.065Z,54.49
2018-02-08T12:12:04.586Z,54.35
2018-02-08T12:13:10.513Z,54.34
2018-02-08T12:14:16.219Z,54.42
2018-02-08T12:15:23.070Z,54.69
2018-02-08T12:16:29.656Z,54.84
2018-02-08T12:17:36.137Z,54.70
2018-02-08T12:18:41.873Z,54.77
2018-02-08T12:19:47.585Z,54.87
2018-02-08T12:20:54.089Z,54.97
2018-02-08T12:21:59.850Z,54.86
2018-02-08T12:23:05.229Z,54.83
2018-02-08T12:24:11.006Z,54.78
2018-02-08T12:25:16.756Z,54.83
2018-02-08T12:26:22.476Z,54.81
2018-02-08T12:27:28.186Z,54.72
2018-02-08T12:28:34.700Z,54.64
2018-02-08T12:29:40.451Z,54.52
2018-02-08T12:30:46.217Z,54.45
2018-02-08T12:31:52.766Z,54.36
2018-02-08T12:32:58.661Z,54.47
2018-02-08T12:34:04.142Z,54.64
2018-02-08T12:35:09.888Z,54.81
2018-02-08T12:36:16.370Z,54.77
2018-02-08T12:37:22.860Z,54.51
2018-02-08T12:38:28.660Z,54.38
2018-02-08T12:39:35.143Z,54.17
2018-02-08T12:40:40.882Z,54.18
2018-02-08T12:41:46.613Z,53.93
2018-02-08T12:42:53.087Z,53.64
2018-02-08T12:43:58.502Z,53.58
2018-02-08T12:45:04.658Z,53.55
2018-02-08T12:46:11.157Z,53.63
2018-02-08T12:47:16.763Z,53.94
2018-02-08T12:48:22.477Z,53.97
2018-02-08T12:49:28.989Z,54.01
2018-02-08T12:50:34.697Z,53.82
2018-02-08T12:51:40.457Z,53.66
2018-02-08T12:52:46.181Z,53.41
2018-02-08T12:53:51.915Z,53.19
2018-02-08T12:54:58.388Z,53.16
2018-02-08T12:56:04.129Z,53.00
2018-02-08T12:57:09.875Z,53.05
2018-02-08T12:58:15.614Z,52.87
2018-02-08T12:59:21.333Z,52.71
2018-02-08T13:00:27.876Z,52.55
2018-02-08T13:01:33.642Z,52.36
2018-02-08T13:02:40.123Z,52.11
2018-02-08T13:03:45.840Z,52.12
2018-02-08T13:04:52.308Z,52.11
2018-02-08T13:05:58.009Z,52.05
2018-02-08T13:07:03.711Z,52.03
2018-02-08T13:08:09.901Z,51.99
2018-02-08T13:09:17.295Z,51.94
2018-02-08T13:10:23.317Z,51.83
2018-02-08T13:11:29.211Z,51.50
2018-02-08T13:12:34.983Z,51.57
2018-02-08T13:13:40.883Z,51.43
2018-02-08T13:14:47.561Z,51.50
2018-02-08T13:15:54.404Z,51.70
2018-02-08T13:17:00.335Z,51.81
2018-02-08T13:18:06.791Z,52.04
2018-02-08T13:19:13.538Z,52.11
2018-02-08T13:20:20.263Z,52.22
2018-02-08T13:21:26.213Z,52.29
2018-02-08T13:22:32.175Z,52.37
2018-02-08T13:23:38.353Z,52.22
2018-02-08T13:24:44.738Z,52.22
2018-02-08T13:25:51.295Z,52.11
2018-02-08T13:26:57.716Z,52.18
2018-02-08T13:28:03.718Z,52.31
2018-02-08T13:29:09.598Z,52.22
2018-02-08T13:30:15.599Z,52.14
2018-02-08T13:32:58.070Z,51.58
2018-02-08T13:34:04.668Z,51.65
2018-02-08T13:35:11.490Z,51.48
2018-02-08T13:36:17.339Z,51.33
2018-02-08T13:37:23.277Z,51.34
2018-02-08T13:38:29.139Z,51.18
2018-02-08T13:41:14.771Z,51.12
2018-02-08T13:42:20.853Z,51.25
2018-02-08T13:43:26.603Z,51.41
2018-02-08T13:44:32.816Z,51.91
2018-02-08T13:45:39.333Z,52.00
2018-02-08T13:46:47.913Z,51.99
2018-02-08T13:49:29.820Z,52.44
2018-02-08T13:50:41.329Z,52.61
2018-02-08T13:53:36.429Z,52.47
2018-02-08T13:54:44.549Z,52.51
2018-02-08T13:55:55.788Z,52.61
2018-02-08T13:57:07.068Z,52.96
2018-02-08T13:58:18.917Z,53.32
2018-02-08T13:59:30.983Z,53.62
2018-02-08T14:00:40.490Z,53.92
2018-02-08T14:01:52.198Z,54.12
2018-02-08T14:02:57.945Z,54.29
2018-02-08T14:04:03.914Z,54.35
2018-02-08T14:05:09.871Z,54.47
2018-02-08T14:06:16.699Z,54.60
2018-02-08T14:07:22.665Z,54.87
2018-02-08T14:08:28.597Z,55.30
2018-02-08T14:09:35.328Z,56.31
2018-02-08T14:10:42.878Z,56.96
2018-02-08T14:11:50.428Z,58.06
2018-02-08T14:12:56.323Z,58.36
2018-02-08T14:14:02.192Z,58.55
2018-02-08T14:15:08.108Z,58.75
2018-02-08T14:16:14.078Z,58.90
2018-02-08T14:17:19.998Z,59.25
2018-02-08T14:18:26.022Z,59.87
2018-02-08T14:19:31.790Z,60.16